createdAt,value
2022-08-26T00:00:24.365Z,65.10
2022-08-26T00:02:50.756Z,64.84
2022-08-26T00:05:17.112Z,64.86
2022-08-26T00:07:43.537Z,65.09
2022-08-26T00:10:09.915Z,64.98
2022-08-26T00:12:37.682Z,65.08
2022-08-26T00:15:02.722Z,65.00
2022-08-26T00:17:29.105Z,65.17
2022-08-26T00:19:55.469Z,65.15
2022-08-26T00:22:21.841Z,65.26
2022-08-26T00:24:48.225Z,65.43
2022-08-26T00:27:14.592Z,65.76
2022-08-26T00:29:40.947Z,65.88
2022-08-26T00:32:07.462Z,66.06
2022-08-26T00:34:33.835Z,66.12
2022-08-26T00:37:00.223Z,66.29
2022-08-26T00:39:26.608Z,66.53
2022-08-26T00:41:52.971Z,66.56
2022-08-26T00:44:19.371Z,66.75
2022-08-26T00:46:46.753Z,67.01
2022-08-26T00:49:12.511Z,67.14
2022-08-26T00:51:38.564Z,67.50
2022-08-26T00:54:05.363Z,67.32
2022-08-26T00:56:31.337Z,67.32
2022-08-26T00:58:57.766Z,67.45
2022-08-26T01:01:24.196Z,67.79
2022-08-26T01:03:50.542Z,67.70
2022-08-26T01:06:16.987Z,67.76
2022-08-26T01:08:43.363Z,67.95
2022-08-26T01:11:09.728Z,67.87
2022-08-26T01:13:36.158Z,67.79
2022-08-26T01:16:02.647Z,67.75
2022-08-26T01:18:28.966Z,67.88
2022-08-26T01:20:57.691Z,68.40
2022-08-26T01:23:21.763Z,68.46
2022-08-26T01:25:48.118Z,68.80
2022-08-26T01:28:14.482Z,68.61
2022-08-26T01:30:40.851Z,68.35
2022-08-26T01:33:07.339Z,68.38
2022-08-26T01:35:33.598Z,68.10
2022-08-26T01:38:00.084Z,68.15
2022-08-26T01:40:26.548Z,68.07
2022-08-26T01:42:52.824Z,68.19
2022-08-26T01:45:19.212Z,68.46
2022-08-26T01:47:45.571Z,67.96
2022-08-26T01:50:11.937Z,67.65
2022-08-26T01:52:38.346Z,67.34
2022-08-26T01:55:04.798Z,67.20
2022-08-26T01:57:31.241Z,66.97
2022-08-26T01:59:57.672Z,66.33
2022-08-26T02:02:24.570Z,66.50
2022-08-26T02:04:50.453Z,66.14
2022-08-26T02:07:16.767Z,66.27
2022-08-26T02:09:43.155Z,65.82
2022-08-26T02:12:09.543Z,65.64
2022-08-26T02:14:35.914Z,65.59
2022-08-26T02:17:02.394Z,65.84
2022-08-26T02:19:28.824Z,66.24
2022-08-26T02:21:55.179Z,66.35
2022-08-26T02:24:21.588Z,66.41
2022-08-26T02:26:47.952Z,66.28
2022-08-26T02:29:14.340Z,66.33
2022-08-26T02:31:40.812Z,66.35
2022-08-26T02:34:07.175Z,66.16
2022-08-26T02:36:33.559Z,66.25
2022-08-26T02:38:59.983Z,66.53
2022-08-26T02:41:26.347Z,66.86
2022-08-26T02:43:52.748Z,67.13
2022-08-26T02:46:27.641Z,67.13
2022-08-26T02:48:45.485Z,67.18
2022-08-26T02:51:11.938Z,67.12
2022-08-26T02:53:38.303Z,66.60
2022-08-26T02:56:04.685Z,66.29
2022-08-26T02:58:31.070Z,66.26
2022-08-26T03:00:57.489Z,66.38
2022-08-26T03:03:23.886Z,66.42
2022-08-26T03:05:50.185Z,66.55
2022-08-26T03:08:16.553Z,66.43
2022-08-26T03:10:42.940Z,66.38
2022-08-26T03:13:09.444Z,66.08
2022-08-26T03:15:35.760Z,65.82
2022-08-26T03:18:02.145Z,64.89
2022-08-26T03:20:28.502Z,64.07
2022-08-26T03:23:06.821Z,64.49
2022-08-26T03:25:21.290Z,64.59
2022-08-26T03:27:47.666Z,63.80
2022-08-26T03:30:14.023Z,63.28
2022-08-26T03:32:41.543Z,62.93
2022-08-26T03:35:06.772Z,62.51
2022-08-26T03:37:33.164Z,63.15
2022-08-26T03:39:59.586Z,63.20
2022-08-26T03:42:25.903Z,62.91
2022-08-26T03:44:52.345Z,63.08
2022-08-26T03:47:18.707Z,62.15
2022-08-26T03:49:45.067Z,61.63
2022-08-26T03:52:11.441Z,61.01
2022-08-26T03:54:37.873Z,60.48
2022-08-26T03:57:04.349Z,60.14
2022-08-26T03:59:30.703Z,59.73
2022-08-26T04:01:57.114Z,59.49
2022-08-26T04:04:24.457Z,59.49
2022-08-26T04:06:49.844Z,59.62
2022-08-26T04:09:16.266Z,59.53
2022-08-26T04:11:42.667Z,59.42
2022-08-26T04:14:09.032Z,60.00
2022-08-26T04:16:35.514Z,60.36
2022-08-26T04:19:01.823Z,59.97
2022-08-26T04:21:28.336Z,59.49
2022-08-26T04:23:54.693Z,59.21
2022-08-26T04:26:21.200Z,59.67
2022-08-26T04:28:47.623Z,59.72
2022-08-26T04:31:14.018Z,59.40
2022-08-26T04:33:41.773Z,59.08
2022-08-26T04:36:06.793Z,59.30
2022-08-26T04:38:33.278Z,59.24
2022-08-26T04:40:59.697Z,59.16
2022-08-26T04:43:26.126Z,58.92
2022-08-26T04:45:52.481Z,58.96
2022-08-26T04:48:18.875Z,59.45
2022-08-26T04:50:45.319Z,59.06
2022-08-26T04:53:11.753Z,59.04
2022-08-26T04:55:42.717Z,58.91
2022-08-26T04:58:04.619Z,58.72
2022-08-26T05:00:30.975Z,58.64
2022-08-26T05:02:57.377Z,58.56
2022-08-26T05:05:23.766Z,58.33
2022-08-26T05:07:50.133Z,58.26
2022-08-26T05:10:16.581Z,59.30
2022-08-26T05:12:42.975Z,60.91
2022-08-26T05:15:09.350Z,60.63
2022-08-26T05:17:35.724Z,61.09
2022-08-26T05:20:02.111Z,63.67
2022-08-26T05:22:28.540Z,64.86
2022-08-26T05:24:54.903Z,65.14
2022-08-26T05:27:21.303Z,65.06
2022-08-26T05:29:47.659Z,63.48
2022-08-26T05:32:14.068Z,63.99
2022-08-26T05:34:40.431Z,63.75
2022-08-26T05:37:06.793Z,61.51
2022-08-26T05:39:33.185Z,60.78
2022-08-26T05:41:59.551Z,60.05
2022-08-26T05:44:25.935Z,60.47
2022-08-26T05:46:52.429Z,59.76
2022-08-26T05:49:18.679Z,59.50
2022-08-26T05:51:45.127Z,61.23
2022-08-26T05:54:11.506Z,61.12
2022-08-26T05:56:37.874Z,62.40
2022-08-26T05:59:04.529Z,62.98
2022-08-26T06:01:30.731Z,63.84
2022-08-26T06:03:57.043Z,64.62
2022-08-26T06:06:27.355Z,65.42
2022-08-26T06:08:49.874Z,64.14
2022-08-26T06:11:18.370Z,63.11
2022-08-26T06:13:42.672Z,64.71
2022-08-26T06:16:09.187Z,62.64
2022-08-26T06:18:35.561Z,62.77
2022-08-26T06:21:01.955Z,63.56
2022-08-26T06:23:28.319Z,62.08
2022-08-26T06:25:54.697Z,61.04
2022-08-26T06:28:21.105Z,60.72
2022-08-26T06:30:47.585Z,62.57
2022-08-26T06:33:13.899Z,62.16
2022-08-26T06:35:40.296Z,60.71
2022-08-26T06:38:06.682Z,62.14
2022-08-26T06:40:33.091Z,63.00
2022-08-26T06:42:59.474Z,63.31
2022-08-26T06:45:25.857Z,62.54
2022-08-26T06:47:52.214Z,62.93
2022-08-26T06:50:18.634Z,61.85
2022-08-26T06:52:45.028Z,61.39
2022-08-26T06:55:11.432Z,62.43
2022-08-26T06:57:41.071Z,62.48
2022-08-26T07:00:04.267Z,61.78
2022-08-26T07:02:30.686Z,63.16
2022-08-26T07:04:57.037Z,63.46
2022-08-26T07:07:23.401Z,63.54
2022-08-26T07:09:52.450Z,63.55
2022-08-26T07:12:16.162Z,63.38
2022-08-26T07:14:47.298Z,63.34
2022-08-26T07:17:13.722Z,63.81
2022-08-26T07:19:35.285Z,64.29
2022-08-26T07:22:01.745Z,63.96
2022-08-26T07:24:28.516Z,63.42
2022-08-26T07:26:54.520Z,63.24
2022-08-26T07:29:20.885Z,63.56
2022-08-26T07:31:47.344Z,63.22
2022-08-26T07:34:13.761Z,63.22
2022-08-26T07:36:40.120Z,63.37
2022-08-26T07:39:06.534Z,62.97
2022-08-26T07:41:32.877Z,62.77
2022-08-26T07:43:59.267Z,61.93
2022-08-26T07:46:29.922Z,61.49
2022-08-26T07:48:52.018Z,61.39
2022-08-26T07:51:18.491Z,61.44
2022-08-26T07:53:44.853Z,61.36
2022-08-26T07:56:11.239Z,61.11
2022-08-26T07:58:37.610Z,61.17
2022-08-26T08:01:04.054Z,61.18
2022-08-26T08:03:30.465Z,60.45
2022-08-26T08:05:56.833Z,60.14
2022-08-26T08:08:26.838Z,58.85
2022-08-26T08:10:49.577Z,58.95
2022-08-26T08:13:15.946Z,58.99
2022-08-26T08:15:42.363Z,59.22
2022-08-26T08:18:15.631Z,59.09
2022-08-26T08:20:35.142Z,58.54
2022-08-26T08:23:01.528Z,58.12
2022-08-26T08:25:27.895Z,58.13
2022-08-26T08:27:54.307Z,57.67
2022-08-26T08:30:22.803Z,56.88
2022-08-26T08:32:47.178Z,57.12
2022-08-26T08:35:13.566Z,56.48
2022-08-26T08:37:39.955Z,55.61
2022-08-26T08:40:06.336Z,55.48
2022-08-26T08:42:32.713Z,55.37
2022-08-26T08:44:59.090Z,54.92
2022-08-26T08:47:25.560Z,54.53
2022-08-26T08:49:51.935Z,53.70
2022-08-26T08:52:18.343Z,53.25
2022-08-26T08:54:44.722Z,53.23
2022-08-26T08:57:11.117Z,52.15
2022-08-26T08:59:38.229Z,50.45
2022-08-26T09:02:03.879Z,51.27
2022-08-26T09:04:30.235Z,50.32
2022-08-26T09:09:23.079Z,47.73
2022-08-26T09:11:49.563Z,47.75
2022-08-26T09:14:15.935Z,47.30
2022-08-26T09:16:42.346Z,45.21
2022-08-26T09:19:08.675Z,44.61
2022-08-26T09:21:35.196Z,43.49
2022-08-26T09:24:01.588Z,43.75
2022-08-26T09:26:29.665Z,43.92
2022-08-26T09:28:54.350Z,42.35
2022-08-26T09:31:20.790Z,41.38
2022-08-26T09:33:47.156Z,40.67
2022-08-26T09:36:13.536Z,40.33
2022-08-26T09:38:39.924Z,40.06
2022-08-26T09:41:06.349Z,40.31
2022-08-26T09:43:32.742Z,41.85
2022-08-26T09:45:59.859Z,41.70
2022-08-26T09:48:25.595Z,42.22
2022-08-26T09:50:51.987Z,42.39
2022-08-26T09:53:20.989Z,41.64
2022-08-26T09:55:44.844Z,42.27
2022-08-26T09:58:11.345Z,41.32
2022-08-26T10:00:38.395Z,38.88
2022-08-26T10:03:04.066Z,38.37
2022-08-26T10:05:30.391Z,38.08
2022-08-26T10:07:56.779Z,37.28
2022-08-26T10:10:23.148Z,37.06
2022-08-26T10:12:49.511Z,38.04
2022-08-26T10:15:15.925Z,37.04
2022-08-26T10:17:42.331Z,37.24
2022-08-26T10:20:13.639Z,38.28
2022-08-26T10:22:35.174Z,37.95
2022-08-26T10:25:02.715Z,37.17
2022-08-26T10:27:27.937Z,35.85
2022-08-26T10:29:54.395Z,34.29
2022-08-26T10:32:20.852Z,35.27
2022-08-26T10:34:47.160Z,36.48
2022-08-26T10:37:16.197Z,36.94
2022-08-26T10:39:39.916Z,36.40
2022-08-26T10:42:06.326Z,35.89
2022-08-26T10:44:32.693Z,33.40
2022-08-26T10:46:59.054Z,35.41
2022-08-26T10:49:25.476Z,35.45
2022-08-26T10:51:51.919Z,35.02
2022-08-26T10:54:18.267Z,33.45
2022-08-26T10:56:44.676Z,34.62
2022-08-26T10:59:12.465Z,34.88
2022-08-26T11:01:40.669Z,34.90
2022-08-26T11:04:03.814Z,34.11
2022-08-26T11:06:30.290Z,33.12
2022-08-26T11:08:56.716Z,31.51
2022-08-26T11:11:23.073Z,31.00
2022-08-26T11:13:49.463Z,31.98
2022-08-26T11:16:15.880Z,32.85
2022-08-26T11:18:42.208Z,33.25
2022-08-26T11:21:10.158Z,33.08
2022-08-26T11:23:35.097Z,31.24
2022-08-26T11:26:01.457Z,30.66
2022-08-26T11:28:27.832Z,31.73
2022-08-26T11:30:58.109Z,31.64
2022-08-26T11:33:20.628Z,32.21
2022-08-26T11:35:47.064Z,31.21
2022-08-26T11:38:13.466Z,29.53
2022-08-26T11:40:39.896Z,29.92
2022-08-26T11:43:06.234Z,29.33
2022-08-26T11:45:32.666Z,30.77
2022-08-26T11:47:58.996Z,32.27
2022-08-26T11:50:25.379Z,32.87
2022-08-26T11:52:51.813Z,32.43
2022-08-26T11:55:18.189Z,32.44
2022-08-26T11:57:44.558Z,31.94
2022-08-26T12:00:13.607Z,31.32
2022-08-26T12:02:37.318Z,31.53
2022-08-26T12:05:03.694Z,31.63
2022-08-26T12:07:30.064Z,30.30
2022-08-26T12:09:56.550Z,31.18
2022-08-26T12:12:22.829Z,31.35
2022-08-26T12:14:49.207Z,30.81
2022-08-26T12:17:15.578Z,31.38
2022-08-26T12:19:41.971Z,31.87
2022-08-26T12:22:08.353Z,32.24
2022-08-26T12:24:34.734Z,32.36
2022-08-26T12:27:01.128Z,32.40
2022-08-26T12:29:27.564Z,32.58
2022-08-26T12:31:53.938Z,32.28
2022-08-26T12:34:20.330Z,31.86
2022-08-26T12:36:46.789Z,31.01
2022-08-26T12:39:13.144Z,30.45
2022-08-26T12:41:39.529Z,30.24
2022-08-26T12:44:05.891Z,30.00
2022-08-26T12:46:32.290Z,29.56
2022-08-26T12:48:58.655Z,28.87
2022-08-26T12:51:25.042Z,29.28
2022-08-26T12:53:51.485Z,29.40
2022-08-26T12:56:17.868Z,29.02
2022-08-26T12:58:44.330Z,29.04
2022-08-26T13:01:10.720Z,29.07
2022-08-26T13:03:37.092Z,29.52
2022-08-26T13:06:03.666Z,29.80
2022-08-26T13:08:31.659Z,29.72
2022-08-26T13:10:58.403Z,29.44
2022-08-26T13:13:24.763Z,29.42
2022-08-26T13:15:51.191Z,29.38
2022-08-26T13:18:17.538Z,29.42
2022-08-26T13:20:43.906Z,29.89
2022-08-26T13:23:10.440Z,30.24
2022-08-26T13:25:36.761Z,30.79
2022-08-26T13:28:03.151Z,30.01
2022-08-26T13:30:29.518Z,30.86
2022-08-26T13:32:55.886Z,30.25
2022-08-26T13:35:22.386Z,30.75
2022-08-26T13:37:48.752Z,30.54
2022-08-26T13:40:15.181Z,30.63
2022-08-26T13:42:49.486Z,30.84
2022-08-26T13:45:07.934Z,30.99
2022-08-26T13:47:34.301Z,31.12
2022-08-26T13:50:00.729Z,30.96
2022-08-26T13:52:31.056Z,32.39
2022-08-26T13:54:53.469Z,31.58
2022-08-26T13:57:19.836Z,30.93
2022-08-26T13:59:46.225Z,31.54
2022-08-26T14:02:12.628Z,31.78
2022-08-26T14:04:38.994Z,30.78
2022-08-26T14:07:05.367Z,31.28
2022-08-26T14:09:34.399Z,31.54
2022-08-26T14:11:59.950Z,31.59
2022-08-26T14:14:24.609Z,31.28
2022-08-26T14:16:59.681Z,31.78
2022-08-26T14:19:17.364Z,31.37
2022-08-26T14:21:43.788Z,32.43
2022-08-26T14:24:10.180Z,32.56
2022-08-26T14:26:36.591Z,33.14
2022-08-26T14:29:02.999Z,33.45
2022-08-26T14:31:29.686Z,34.00
2022-08-26T14:33:55.749Z,34.02
2022-08-26T14:36:22.134Z,34.22
2022-08-26T14:38:48.525Z,34.45
2022-08-26T14:41:14.897Z,34.71
2022-08-26T14:43:41.306Z,35.33
2022-08-26T14:46:07.750Z,35.24
2022-08-26T14:48:34.076Z,34.77
2022-08-26T14:51:00.464Z,35.60
2022-08-26T14:53:26.906Z,36.07
2022-08-26T14:55:53.358Z,36.25
2022-08-26T14:58:19.731Z,36.44
2022-08-26T15:00:46.104Z,36.92
2022-08-26T15:03:12.684Z,36.45
2022-08-26T15:05:38.976Z,35.38
2022-08-26T15:08:05.411Z,35.59
2022-08-26T15:10:31.774Z,34.44
2022-08-26T15:12:58.171Z,34.30
2022-08-26T15:15:24.553Z,34.66
2022-08-26T15:17:50.906Z,34.16
2022-08-26T15:20:17.375Z,34.14
2022-08-26T15:22:43.726Z,34.61
2022-08-26T15:25:10.103Z,35.39
2022-08-26T15:27:36.640Z,35.55
2022-08-26T15:30:03.008Z,34.30
2022-08-26T15:32:29.390Z,34.00
2022-08-26T15:34:55.865Z,34.60
2022-08-26T15:37:22.301Z,35.59
2022-08-26T15:39:48.742Z,35.70
2022-08-26T15:42:15.093Z,34.96
2022-08-26T15:44:41.476Z,34.97
2022-08-26T15:47:07.914Z,35.57
2022-08-26T15:49:34.322Z,34.59
2022-08-26T15:52:00.686Z,35.65
2022-08-26T15:54:27.089Z,36.54
2022-08-26T15:56:53.555Z,41.87
2022-08-26T15:59:19.922Z,39.81
2022-08-26T16:01:46.409Z,39.11
2022-08-26T16:04:12.743Z,40.97
2022-08-26T16:06:39.129Z,39.82
2022-08-26T16:09:05.527Z,39.71
2022-08-26T16:11:31.925Z,39.11
2022-08-26T16:13:58.324Z,38.83
2022-08-26T16:16:24.799Z,38.29
2022-08-26T16:18:51.139Z,39.41
2022-08-26T16:21:17.493Z,39.60
2022-08-26T16:23:45.299Z,39.15
2022-08-26T16:26:10.471Z,39.93
2022-08-26T16:28:36.633Z,38.28
2022-08-26T16:31:03.033Z,37.28
2022-08-26T16:33:29.811Z,38.59
2022-08-26T16:35:55.736Z,40.17
2022-08-26T16:38:22.111Z,40.74
2022-08-26T16:40:48.492Z,38.68
2022-08-26T16:43:15.214Z,40.07
2022-08-26T16:45:41.297Z,39.96
2022-08-26T16:48:07.753Z,41.29
2022-08-26T16:50:34.063Z,41.53
2022-08-26T16:53:00.675Z,41.07
2022-08-26T16:55:26.912Z,41.57
2022-08-26T16:57:53.304Z,41.46
2022-08-26T17:00:19.713Z,41.80
2022-08-26T17:02:46.156Z,42.52
2022-08-26T17:05:12.477Z,42.78
2022-08-26T17:07:38.906Z,43.68
2022-08-26T17:10:05.319Z,42.97
2022-08-26T17:12:31.690Z,44.37
2022-08-26T17:14:58.056Z,43.95
2022-08-26T17:17:24.434Z,43.83
2022-08-26T17:19:50.804Z,44.92
2022-08-26T17:22:17.201Z,44.66
2022-08-26T17:24:43.559Z,44.74
2022-08-26T17:27:09.930Z,45.04
2022-08-26T17:29:36.354Z,45.09
2022-08-26T17:32:02.736Z,45.05
2022-08-26T17:34:29.098Z,44.98
2022-08-26T17:36:55.504Z,45.17
2022-08-26T17:39:21.891Z,45.38
2022-08-26T17:41:48.275Z,45.60
2022-08-26T17:44:14.644Z,45.82
2022-08-26T17:46:41.078Z,46.05
2022-08-26T17:49:07.430Z,45.84
2022-08-26T17:51:33.865Z,45.44
2022-08-26T17:54:00.230Z,45.24
2022-08-26T17:56:26.603Z,44.78
2022-08-26T17:58:52.988Z,44.54
2022-08-26T18:01:19.449Z,44.93
2022-08-26T18:03:45.798Z,44.63
2022-08-26T18:06:12.160Z,44.64
2022-08-26T18:08:38.546Z,44.81
2022-08-26T18:11:04.953Z,44.67
2022-08-26T18:13:31.353Z,44.00
2022-08-26T18:15:57.808Z,43.88
2022-08-26T18:18:24.181Z,44.09
2022-08-26T18:20:54.095Z,44.28
2022-08-26T18:23:16.932Z,44.61
2022-08-26T18:25:43.365Z,44.60
2022-08-26T18:28:09.715Z,44.50
2022-08-26T18:30:36.173Z,44.58
2022-08-26T18:33:02.568Z,44.79
2022-08-26T18:35:29.008Z,45.14
2022-08-26T18:37:55.367Z,45.50
2022-08-26T18:40:21.843Z,45.58
2022-08-26T18:42:49.354Z,45.56
2022-08-26T18:45:18.132Z,46.00
2022-08-26T18:47:44.521Z,46.49
2022-08-26T18:50:10.922Z,46.38
2022-08-26T18:52:37.284Z,46.93
2022-08-26T18:55:03.673Z,47.35
2022-08-26T18:57:30.058Z,47.55
2022-08-26T18:59:56.436Z,48.05
2022-08-26T19:02:22.919Z,47.63
2022-08-26T19:04:49.233Z,47.25
2022-08-26T19:07:15.807Z,47.79
2022-08-26T19:09:42.173Z,48.17
2022-08-26T19:12:08.538Z,48.36
2022-08-26T19:14:34.928Z,48.63
2022-08-26T19:17:01.405Z,49.00
2022-08-26T19:19:27.694Z,49.28
2022-08-26T19:21:54.061Z,49.33
2022-08-26T19:24:20.573Z,49.45
2022-08-26T19:26:46.962Z,49.52
2022-08-26T19:29:13.401Z,49.64
2022-08-26T19:31:39.729Z,49.33
2022-08-26T19:34:06.107Z,49.15
2022-08-26T19:36:32.703Z,48.97
2022-08-26T19:38:59.067Z,48.52
2022-08-26T19:41:37.128Z,48.42
2022-08-26T19:43:51.845Z,48.56
2022-08-26T19:46:18.288Z,48.87
2022-08-26T19:48:44.578Z,49.20
2022-08-26T19:51:11.028Z,49.41
2022-08-26T19:53:37.417Z,49.73
2022-08-26T19:56:03.813Z,49.88
2022-08-26T19:58:30.224Z,50.17
2022-08-26T20:00:56.647Z,50.44
2022-08-26T20:03:23.201Z,50.64
2022-08-26T20:05:49.613Z,50.94
2022-08-26T20:08:22.215Z,51.25
2022-08-26T20:10:42.374Z,51.34
2022-08-26T20:13:08.817Z,51.40
2022-08-26T20:15:35.149Z,51.50
2022-08-26T20:18:01.521Z,51.64
2022-08-26T20:20:33.401Z,51.78
2022-08-26T20:22:54.332Z,52.06
2022-08-26T20:25:20.718Z,52.02
2022-08-26T20:27:47.072Z,51.79
2022-08-26T20:30:13.444Z,51.83
2022-08-26T20:32:39.875Z,51.99
2022-08-26T20:35:06.272Z,52.04
2022-08-26T20:37:32.823Z,52.00
2022-08-26T20:39:59.226Z,52.22
2022-08-26T20:42:25.577Z,52.55
2022-08-26T20:44:55.042Z,52.71
2022-08-26T20:47:18.378Z,53.06
2022-08-26T20:49:44.808Z,53.27
2022-08-26T20:52:11.169Z,53.44
2022-08-26T20:54:37.562Z,53.90
2022-08-26T20:57:03.950Z,54.05
2022-08-26T20:59:30.325Z,54.25
2022-08-26T21:01:56.711Z,54.28
2022-08-26T21:04:23.198Z,54.68
2022-08-26T21:06:52.881Z,54.96
2022-08-26T21:09:15.999Z,54.69
2022-08-26T21:11:42.399Z,54.72
2022-08-26T21:14:16.157Z,54.67
2022-08-26T21:16:35.236Z,54.56
2022-08-26T21:19:01.595Z,54.20
2022-08-26T21:21:28.022Z,53.52
2022-08-26T21:23:54.459Z,53.34
2022-08-26T21:26:20.840Z,53.42
2022-08-26T21:28:47.206Z,53.89
2022-08-26T21:31:13.784Z,54.39
2022-08-26T21:33:39.963Z,54.85
2022-08-26T21:36:06.422Z,55.07
2022-08-26T21:38:32.789Z,55.21
2022-08-26T21:40:59.179Z,54.88
2022-08-26T21:43:34.980Z,54.71
2022-08-26T21:45:51.978Z,54.85
2022-08-26T21:48:18.300Z,54.74
2022-08-26T21:50:44.664Z,54.59
2022-08-26T21:53:11.049Z,54.44
2022-08-26T21:55:37.415Z,53.99
2022-08-26T21:58:03.817Z,53.97
2022-08-26T22:00:30.240Z,54.31
2022-08-26T22:02:56.615Z,54.42
2022-08-26T22:05:22.982Z,54.58
2022-08-26T22:07:49.436Z,54.90
2022-08-26T22:10:15.802Z,55.10
2022-08-26T22:12:42.198Z,54.97
2022-08-26T22:15:08.633Z,54.95
2022-08-26T22:17:34.996Z,55.33
2022-08-26T22:20:01.386Z,55.59
2022-08-26T22:22:27.830Z,55.51
2022-08-26T22:24:54.262Z,55.85
2022-08-26T22:27:20.623Z,55.91
